This is the latest recevied weather packets stored in our database for station/object K0BL. If no packets are shown the sender has not sent any weather packets the latest 10 day(s).
| Time | Temp. | Humidity | Pressure | Rain* | Wind** | Luminosity | Snow |
|---|---|---|---|---|---|---|---|
| 1777561819 | 9.44° C | 90% | 1015.2 hPa | 0.76 mm | - | 193 W/m² | - |
| 1777561516 | 8.89° C | 92% | 1015.3 hPa | 0.76 mm | - | 175 W/m² | - |
| 1777560913 | 8.89° C | 92% | 1015.5 hPa | 0.76 mm | - | 131 W/m² | - |
| 1777557598 | 8.89° C | 85% | 1015.2 hPa | 0 mm | - | 31 W/m² | - |
| 1777556696 | 8.89° C | 85% | 1015.2 hPa | 0 mm | - | 30 W/m² | - |
| 1777555496 | 8.33° C | 82% | 1015.2 hPa | 0 mm | - | 51 W/m² | - |
| 1777555196 | 8.33° C | 82% | 1015.1 hPa | 0 mm | - | 43 W/m² | - |
| 1777554896 | 8.33° C | 81% | 1015.3 hPa | 0 mm | - | 22 W/m² | - |
| 1777554296 | 7.78° C | 81% | 1015.3 hPa | 0 mm | - | 50 W/m² | - |
| 1777553691 | 7.22° C | 89% | 1015.2 hPa | 0 mm | - | 35 W/m² | - |
| 1777553391 | 6.67° C | 91% | 1015.2 hPa | 0 mm | - | 34 W/m² | - |
| 1777553090 | 6.67° C | 92% | 1015.2 hPa | 0 mm | - | 25 W/m² | - |
| 1777551888 | 6.67° C | 90% | 1014.9 hPa | 0 mm | - | 7 W/m² | - |
| 1777550089 | 6.11° C | 90% | 1014.8 hPa | 0 mm | - | 19 W/m² | - |
| 1777549488 | 6.11° C | 90% | 1014.9 hPa | 0 mm | - | 9 W/m² | - |
| 1777546780 | 4.44° C | 95% | 1015.1 hPa | 0 mm | - | 0 W/m² | - |
| 1777546480 | 4.44° C | 96% | 1015.1 hPa | 0 mm | - | 0 W/m² | - |
| 1777544078 | 3.33° C | 98% | 1015.1 hPa | 0 mm | - | 0 W/m² | - |
| 1777543477 | 3.33° C | 98% | 1015.1 hPa | 0 mm | - | 0 W/m² | - |
| 1777541969 | 2.78° C | 98% | 1014.9 hPa | 0 mm | - | 0 W/m² | - |
| 1777537447 | 3.33° C | 96% | 1014.8 hPa | 0 mm | - | 0 W/m² | - |
| 1777536848 | 3.33° C | 96% | 1014.8 hPa | 0 mm | - | 0 W/m² | - |
| 1777536549 | 3.33° C | 95% | 1014.8 hPa | 0 mm | - | 0 W/m² | - |
| 1777534129 | 3.33° C | 95% | 1015.3 hPa | 0 mm | - | 0 W/m² | - |
| 1777533828 | 3.33° C | 94% | 1015.5 hPa | 0 mm | - | 0 W/m² | - |
* Rain latest hour (hover to see other rain measurements)
** Current wind speed in m/s (hover to see current wind gust speed)